NATURA VA

 METAR AND TAF INFORMATION
METAR FOR GCHI
ADDS - METARS form results

(0323 UTC 16 January 2019)
Data provider http://aviationweather.gov/metar/data/
 
METAR text: GCHI 160300Z AUTO 04017KT CAVOK 18/13 Q1022
Conditions at: GCHI (HIERRO AIRPORT , ES) observed 0300 UTC 16 January 2019
Temperature: 18.0°C (64°F)
Dewpoint: 13.0°C (55°F) [RH = 73%]
Pressure (altimeter): 30.18 inches Hg (1022.0 mb)
Winds: from the NE (40 degrees) at 20 MPH (17 knots; 8.7 m/s)
Visibility: 6 or more miles (10+ km)
Ceiling: ceiling and visibility are OK
Clouds: unknown
Weather: no significant weather observed at this time

METAR text: GCHI 160230Z AUTO 03015KT 350V060 9999 SCT028/// 18/14 Q1022
Conditions at: GCHI (HIERRO AIRPORT , ES) observed 0230 UTC 16 January 2019
Temperature: 18.0°C (64°F)
Dewpoint: 14.0°C (57°F) [RH = 77%]
Pressure (altimeter): 30.18 inches Hg (1022.0 mb)
Winds: from the NNE (30 degrees) at 17 MPH (15 knots; 7.7 m/s)
Visibility: 6 or more miles (10+ km)
Ceiling: at least 12,000 feet AGL
Clouds: scattered clouds at 2800 feet AGL
Weather: no significant weather observed at this time

Forecast for: GCHI (HIERRO AIRPORT , ES)
Text: TAF GCHI 160200Z 1603/1703 04012KT 9999 FEW020 TX21/1614Z TN18/1606Z
Forecast period: 0300 UTC 16 January 2019 to 0300 UTC 17 January 2019
Forecast type: FROM: standard forecast or significant change
Winds: from the NE (40 degrees) at 14 MPH (12 knots; 6.2 m/s)
Visibility: 6 or more miles 10+ km)
Ceiling: at least 12,000 feet AGL
Clouds: few clouds at 2000 feet AGL
Weather: no significant weather forecast for this period

 AIRPORT MAP

 RUNWAY INFORMATION
Runway 16 Runway length 4101 ft Runway width 98 ft
Runway elevation 71 ft Runway displaced threshold 0 ft Runway heading 153
Runway 34 Runway length 4101 ft Runway width 98 ft
Runway elevation 103 ft Runway displaced threshold 0 ft Runway heading 333

 AIRPORT FREQUENCIES
Type A/D Name CANARIAS A Frequency 126.1 MHZ
Type GND Name GND Frequency 121.6 MHZ
Type TWR Name TWR Frequency 118.1 MHZ

 AIRPORT NEAR NAVIGATION AIDS
Type NDB Name Hierro Frequency 376 KHZ
Type DME Name Hierro Frequency 113200 KHZ



Powered by Virtual Airlines Manager [v2.6.2]